Time;durP1;ratioP1;P1;durP2;ratioP2;P2;SDS_P1;SDS_P2;PMS_P1;PMS_P2;Temp;Humidity;BMP_temperature;BMP_pressure;BME280_temperature;BME280_humidity;BME280_pressure;Samples;Min_cycle;Max_cycle;Signal;HPM_P1;HPM_P2
2023/05/01 00:00:17;;;;;;;0.10;0.10;;;16.00;99.90;;;;;;5074242;28;20099;-76
2023/05/01 00:02:47;;;;;;;0.00;0.00;;;16.10;99.80;;;;;;5056133;28;20024;-74
2023/05/01 00:05:13;;;;;;;0.03;0.03;;;16.10;99.90;;;;;;5049901;28;20473;-73
2023/05/01 00:07:39;;;;;;;0.20;0.13;;;16.20;99.30;;;;;;5065455;28;20035;-73
2023/05/01 00:10:06;;;;;;;0.00;0.00;;;16.00;99.60;;;;;;5073500;28;20041;-73
2023/05/01 00:12:31;;;;;;;0.00;0.00;;;16.10;99.60;;;;;;5073541;28;20025;-73
2023/05/01 00:14:57;;;;;;;0.00;0.00;;;16.00;99.80;;;;;;5071453;28;20121;-73
2023/05/01 00:17:23;;;;;;;0.00;0.00;;;16.10;99.90;;;;;;5035935;28;20013;-73
2023/05/01 00:19:53;;;;;;;0.00;0.00;;;16.20;99.40;;;;;;5067622;28;20119;-75
2023/05/01 00:22:18;;;;;;;0.00;0.00;;;16.10;99.90;;;;;;5066972;28;20508;-74
2023/05/01 00:24:46;;;;;;;0.00;0.00;;;16.10;99.90;;;;;;5066571;28;20016;-73
2023/05/01 00:27:12;;;;;;;0.00;0.00;;;16.10;99.80;;;;;;5059506;28;20526;-75
2023/05/01 00:29:38;;;;;;;0.00;0.00;;;16.00;99.90;;;;;;5073576;28;20031;-77
2023/05/01 00:32:05;;;;;;;0.00;0.00;;;16.00;99.70;;;;;;5073480;28;20119;-75
2023/05/01 00:34:30;;;;;;;0.00;0.00;;;16.10;99.90;;;;;;5059314;28;20028;-73
2023/05/01 00:36:57;;;;;;;0.00;0.00;;;16.10;99.70;;;;;;5062030;28;20040;-73
2023/05/01 00:39:23;;;;;;;0.03;0.03;;;16.10;99.90;;;;;;5056763;28;20059;-72
2023/05/01 00:41:49;;;;;;;0.00;0.00;;;16.00;99.90;;;;;;5071695;28;20069;-73
2023/05/01 00:44:15;;;;;;;0.03;0.03;;;16.00;99.90;;;;;;5056850;28;20028;-73
2023/05/01 00:46:42;;;;;;;0.00;0.00;;;16.00;99.90;;;;;;5060655;28;20047;-73
2023/05/01 00:49:08;;;;;;;0.10;0.10;;;15.80;99.90;;;;;;5071880;28;20496;-73
2023/05/01 00:51:35;;;;;;;0.00;0.00;;;15.90;99.90;;;;;;5071223;28;20032;-77
2023/05/01 00:54:02;;;;;;;0.65;0.65;;;15.90;99.90;;;;;;5073133;28;20016;-74
2023/05/01 00:56:30;;;;;;;0.10;0.10;;;15.90;99.90;;;;;;5071867;28;20032;-73
2023/05/01 00:58:56;;;;;;;3.60;2.83;;;15.50;99.90;;;;;;5071590;28;20033;-73
2023/05/01 01:01:22;;;;;;;0.00;0.00;;;15.30;99.90;;;;;;5071725;28;20042;-75
2023/05/01 01:03:53;;;;;;;0.00;0.00;;;15.20;99.90;;;;;;5071568;28;20038;-73
2023/05/01 01:06:38;;;;;;;0.00;0.00;;;15.10;99.90;;;;;;5072747;28;20493;-75
2023/05/01 01:09:22;;;;;;;0.00;0.00;;;15.10;99.90;;;;;;5072578;28;20033;-75
2023/05/01 01:12:07;;;;;;;1.20;0.63;;;15.10;99.90;;;;;;5071531;28;20080;-73
2023/05/01 01:14:41;;;;;;;0.00;0.00;;;15.40;99.90;;;;;;5071463;28;20034;-73
2023/05/01 01:17:17;;;;;;;0.10;0.10;;;15.30;99.90;;;;;;5072750;28;20111;-73
2023/05/01 01:19:52;;;;;;;0.00;0.00;;;15.60;99.90;;;;;;5054520;28;20034;-74
2023/05/01 01:22:23;;;;;;;0.08;0.08;;;15.80;99.90;;;;;;5072542;28;20024;-75
2023/05/01 01:25:16;;;;;;;0.00;0.00;;;15.90;99.90;;;;;;5072780;28;20032;-73
2023/05/01 01:28:09;;;;;;;0.00;0.00;;;16.00;99.90;;;;;;5071246;28;20162;-73
2023/05/01 01:31:08;;;;;;;0.10;0.10;;;16.20;99.90;;;;;;5062575;28;20063;-73
2023/05/01 01:33:53;;;;;;;0.10;0.10;;;16.10;99.90;;;;;;5054377;28;20032;-76
2023/05/01 01:36:33;;;;;;;0.55;0.55;;;15.90;99.90;;;;;;5039985;28;20044;-74
2023/05/01 01:39:12;;;;;;;0.00;0.00;;;15.90;99.90;;;;;;5066165;28;20108;-73
2023/05/01 01:41:38;;;;;;;0.00;0.00;;;15.80;99.90;;;;;;5072682;28;20025;-73
2023/05/01 01:44:42;;;;;;;0.30;0.30;;;15.60;99.90;;;;;;5054668;28;20017;-73
2023/05/01 01:47:11;;;;;;;0.20;0.20;;;15.10;99.90;;;;;;5071899;28;20457;-73
2023/05/01 01:49:42;;;;;;;0.00;0.00;;;14.70;99.90;;;;;;5070902;28;20464;-73
2023/05/01 01:52:13;;;;;;;0.00;0.00;;;14.50;99.90;;;;;;5072405;28;20381;-73
2023/05/01 01:54:46;;;;;;;0.00;0.00;;;14.70;99.90;;;;;;5071107;28;20097;-73
2023/05/01 01:57:15;;;;;;;0.00;0.00;;;15.10;99.90;;;;;;5071118;28;20020;-73
2023/05/01 01:59:43;;;;;;;0.00;0.00;;;15.40;99.90;;;;;;5071095;28;20111;-73
2023/05/01 02:02:10;;;;;;;0.03;0.03;;;15.50;99.90;;;;;;5071045;28;20020;-72
2023/05/01 02:04:38;;;;;;;0.03;0.03;;;15.60;99.90;;;;;;5070596;28;20159;-73
2023/05/01 02:07:06;;;;;;;0.20;0.20;;;15.70;99.90;;;;;;5070911;28;20107;-73
2023/05/01 02:09:34;;;;;;;0.10;0.10;;;15.70;99.90;;;;;;5072391;28;20047;-74
2023/05/01 02:12:04;;;;;;;0.00;0.00;;;15.60;99.90;;;;;;5071045;28;20032;-73
2023/05/01 02:14:31;;;;;;;0.00;0.00;;;15.60;99.90;;;;;;5070724;28;20405;-73
2023/05/01 02:16:58;;;;;;;0.00;0.00;;;15.60;99.90;;;;;;5060661;28;20032;-73
2023/05/01 02:19:25;;;;;;;0.00;0.00;;;15.40;99.90;;;;;;5070261;28;20035;-73
2023/05/01 02:21:55;;;;;;;0.00;0.00;;;15.40;99.90;;;;;;5074753;28;20040;-73
2023/05/01 02:24:23;;;;;;;0.00;0.00;;;15.40;99.90;;;;;;5074524;28;20016;-73
2023/05/01 02:26:56;;;;;;;0.00;0.00;;;15.30;99.90;;;;;;5074893;28;20060;-73
2023/05/01 02:29:22;;;;;;;0.10;0.10;;;15.40;99.90;;;;;;5074520;28;20639;-73
2023/05/01 02:31:48;;;;;;;0.00;0.00;;;15.30;99.90;;;;;;5074713;28;20017;-74
2023/05/01 02:34:14;;;;;;;0.10;0.10;;;15.20;99.90;;;;;;5075297;28;20115;-73
2023/05/01 02:36:40;;;;;;;0.00;0.00;;;15.00;99.90;;;;;;5074490;28;20028;-75
2023/05/01 02:39:06;;;;;;;0.00;0.00;;;15.10;99.90;;;;;;5074296;28;20500;-73
2023/05/01 02:41:33;;;;;;;0.38;0.38;;;15.00;99.90;;;;;;5074106;28;20529;-73
2023/05/01 02:44:03;;;;;;;0.35;0.35;;;15.00;99.90;;;;;;5074280;28;20024;-74
2023/05/01 02:46:32;;;;;;;0.13;0.13;;;14.90;99.90;;;;;;5055868;28;20047;-72
2023/05/01 02:49:01;;;;;;;0.10;0.10;;;14.70;99.90;;;;;;5074168;28;20542;-71
2023/05/01 02:51:28;;;;;;;0.10;0.10;;;14.90;99.90;;;;;;5073940;28;20102;-71
2023/05/01 02:53:55;;;;;;;0.00;0.00;;;15.10;99.90;;;;;;5075530;28;20024;-72
2023/05/01 02:56:24;;;;;;;0.00;0.00;;;15.20;99.90;;;;;;5074091;28;20040;-71
2023/05/01 02:58:50;;;;;;;0.00;0.00;;;15.30;99.90;;;;;;5074028;28;20056;-72
2023/05/01 03:01:16;;;;;;;0.10;0.10;;;15.10;99.90;;;;;;5073564;28;20055;-71
2023/05/01 03:03:42;;;;;;;0.00;0.00;;;15.00;99.90;;;;;;5075222;28;20100;-71
2023/05/01 03:06:08;;;;;;;0.00;0.00;;;14.80;99.90;;;;;;5075255;28;20027;-71
2023/05/01 03:08:35;;;;;;;0.00;0.00;;;14.80;99.90;;;;;;5075047;28;20020;-72
2023/05/01 03:11:07;;;;;;;0.10;0.10;;;14.80;99.90;;;;;;5074764;28;20434;-72
2023/05/01 03:13:33;;;;;;;0.00;0.00;;;14.80;99.90;;;;;;5073696;28;20025;-72
2023/05/01 03:16:00;;;;;;;0.00;0.00;;;14.60;99.90;;;;;;5074619;28;20119;-72
2023/05/01 03:18:26;;;;;;;0.00;0.00;;;14.80;99.90;;;;;;5057257;28;20025;-72
2023/05/01 03:20:58;;;;;;;0.00;0.00;;;14.80;99.90;;;;;;5073511;28;20027;-71
2023/05/01 03:23:26;;;;;;;0.10;0.10;;;14.80;99.90;;;;;;5073581;28;20142;-71
2023/05/01 03:25:53;;;;;;;0.00;0.00;;;14.70;99.90;;;;;;5073395;28;20028;-72
2023/05/01 03:28:22;;;;;;;0.00;0.00;;;14.70;99.90;;;;;;5073577;28;20013;-73
2023/05/01 03:30:51;;;;;;;0.00;0.00;;;14.80;99.90;;;;;;5072785;28;20016;-73
2023/05/01 03:33:17;;;;;;;0.00;0.00;;;14.60;99.90;;;;;;5073335;28;20025;-72
2023/05/01 03:35:43;;;;;;;0.10;0.10;;;14.60;99.90;;;;;;5073143;28;20032;-72
2023/05/01 03:38:09;;;;;;;0.08;0.08;;;14.70;99.90;;;;;;5073369;28;20020;-73
2023/05/01 03:40:53;;;;;;;0.00;0.00;;;14.60;99.90;;;;;;5074425;28;20090;-72
2023/05/01 03:43:41;;;;;;;0.10;0.10;;;14.50;99.90;;;;;;5071383;28;20033;-72
2023/05/01 03:46:16;;;;;;;0.70;0.70;;;14.70;99.90;;;;;;5055886;28;20028;-72
2023/05/01 03:48:43;;;;;;;0.00;0.00;;;14.70;99.90;;;;;;5056466;28;20054;-73
2023/05/01 03:51:09;;;;;;;0.00;0.00;;;14.60;99.90;;;;;;5056273;28;20032;-72
2023/05/01 03:53:35;;;;;;;0.00;0.00;;;14.50;99.90;;;;;;5056296;28;20037;-74
2023/05/01 03:56:04;;;;;;;0.10;0.10;;;14.50;99.90;;;;;;5056053;28;20120;-71
2023/05/01 03:58:31;;;;;;;0.10;0.10;;;14.20;99.90;;;;;;5056178;28;20119;-72
2023/05/01 04:00:59;;;;;;;0.00;0.00;;;14.30;99.90;;;;;;5055817;28;20119;-72
2023/05/01 04:03:27;;;;;;;0.10;0.10;;;14.30;99.90;;;;;;5055941;28;20032;-72
2023/05/01 04:05:55;;;;;;;0.10;0.10;;;14.30;99.90;;;;;;5055856;28;20029;-72
2023/05/01 04:08:21;;;;;;;0.00;0.00;;;14.50;99.90;;;;;;5056113;28;20036;-72
2023/05/01 04:10:47;;;;;;;0.00;0.00;;;14.40;99.90;;;;;;5052358;28;20031;-72
2023/05/01 04:13:13;;;;;;;0.00;0.00;;;14.50;99.90;;;;;;5047695;28;20115;-73
2023/05/01 04:15:42;;;;;;;0.00;0.00;;;14.60;99.90;;;;;;5055394;28;20037;-73
2023/05/01 04:18:08;;;;;;;0.00;0.00;;;14.50;99.90;;;;;;5055818;28;20028;-72
2023/05/01 04:20:35;;;;;;;0.00;0.00;;;14.60;99.90;;;;;;5055813;28;22083;-74
2023/05/01 04:23:01;;;;;;;0.00;0.00;;;14.60;99.90;;;;;;5055715;28;20081;-73
2023/05/01 04:25:27;;;;;;;0.00;0.00;;;14.70;99.90;;;;;;5055265;28;20028;-74
2023/05/01 04:27:58;;;;;;;0.00;0.00;;;14.80;99.90;;;;;;5055013;28;20028;-72
2023/05/01 04:30:24;;;;;;;0.10;0.10;;;14.80;99.90;;;;;;5073662;28;20546;-72
2023/05/01 04:32:50;;;;;;;0.00;0.00;;;14.70;99.90;;;;;;5055518;28;20226;-72
2023/05/01 04:35:16;;;;;;;0.00;0.00;;;14.60;99.90;;;;;;5055553;28;20374;-72
2023/05/01 04:37:43;;;;;;;0.00;0.00;;;14.70;99.90;;;;;;5055374;28;20017;-72
2023/05/01 04:40:10;;;;;;;0.00;0.00;;;14.60;99.90;;;;;;5065703;28;20039;-72
2023/05/01 04:42:36;;;;;;;0.10;0.10;;;14.60;99.90;;;;;;5071214;28;20108;-72
2023/05/01 04:45:03;;;;;;;0.00;0.00;;;14.60;99.90;;;;;;5071791;28;20536;-72
2023/05/01 04:47:32;;;;;;;0.10;0.10;;;14.60;99.90;;;;;;5072009;28;20127;-72
2023/05/01 04:49:58;;;;;;;0.00;0.00;;;14.10;99.90;;;;;;5071724;28;20139;-72
2023/05/01 04:52:24;;;;;;;0.10;0.10;;;13.90;99.90;;;;;;5071561;28;20362;-72
2023/05/01 04:54:56;;;;;;;0.10;0.10;;;13.80;99.90;;;;;;5071659;28;20035;-71
2023/05/01 04:57:23;;;;;;;0.00;0.00;;;13.90;99.90;;;;;;5071569;28;20046;-73
2023/05/01 04:59:50;;;;;;;0.00;0.00;;;14.30;99.90;;;;;;5073196;28;20020;-75
2023/05/01 05:02:16;;;;;;;0.00;0.00;;;14.50;99.90;;;;;;5071351;28;20020;-75
2023/05/01 05:04:41;;;;;;;0.63;0.63;;;14.50;99.90;;;;;;5071654;28;20033;-72
2023/05/01 05:07:08;;;;;;;0.00;0.00;;;14.20;99.90;;;;;;5072671;28;20024;-74
2023/05/01 05:09:52;;;;;;;0.00;0.00;;;14.30;99.90;;;;;;5073148;28;20609;-72
2023/05/01 05:12:19;;;;;;;0.00;0.00;;;14.40;99.90;;;;;;5071046;28;20024;-74
2023/05/01 05:14:46;;;;;;;0.13;0.13;;;14.50;99.90;;;;;;5071597;28;20036;-72
2023/05/01 05:17:14;;;;;;;0.10;0.10;;;14.50;99.90;;;;;;5071319;28;20024;-73
2023/05/01 05:19:40;;;;;;;237.02;65.50;;;14.30;99.90;;;;;;5071487;28;20397;-72
2023/05/01 05:22:06;;;;;;;0.10;0.10;;;14.30;99.90;;;;;;5071140;28;20032;-73
2023/05/01 05:24:41;;;;;;;3.40;2.65;;;14.50;99.90;;;;;;5071554;28;20059;-72
2023/05/01 05:27:07;;;;;;;0.10;0.10;;;14.40;99.90;;;;;;5071012;28;20063;-73
2023/05/01 05:29:33;;;;;;;0.10;0.10;;;14.30;99.90;;;;;;5072652;28;20035;-72
2023/05/01 05:32:00;;;;;;;0.10;0.10;;;14.10;99.90;;;;;;5054949;28;20024;-72
2023/05/01 05:34:26;;;;;;;0.10;0.10;;;14.00;99.90;;;;;;5071006;28;20025;-72
2023/05/01 05:36:52;;;;;;;0.10;0.10;;;14.00;99.90;;;;;;5071218;28;20048;-72
2023/05/01 05:39:22;;;;;;;0.15;0.15;;;13.90;99.90;;;;;;5070536;28;20032;-72
2023/05/01 05:41:48;;;;;;;0.10;0.10;;;13.90;99.90;;;;;;5070801;28;20476;-72
2023/05/01 05:44:15;;;;;;;0.10;0.10;;;14.00;99.90;;;;;;5054564;28;20025;-72
2023/05/01 05:46:43;;;;;;;0.10;0.10;;;14.20;99.90;;;;;;5071224;28;20024;-72
2023/05/01 05:49:11;;;;;;;0.10;0.10;;;14.30;99.90;;;;;;5070788;28;20038;-71
2023/05/01 05:51:37;;;;;;;0.10;0.10;;;14.60;99.90;;;;;;5071192;28;20032;-72
2023/05/01 05:54:04;;;;;;;0.57;0.57;;;14.70;99.90;;;;;;5072689;28;20550;-74
2023/05/01 05:56:33;;;;;;;0.20;0.20;;;14.40;99.90;;;;;;5074957;28;20043;-72
2023/05/01 05:59:02;;;;;;;0.00;0.00;;;14.30;99.90;;;;;;5075283;28;20104;-72
2023/05/01 06:01:28;;;;;;;0.00;0.00;;;14.40;99.90;;;;;;5075206;28;20039;-72
2023/05/01 06:03:54;;;;;;;0.10;0.10;;;14.80;99.90;;;;;;5074920;28;20009;-74
2023/05/01 06:06:22;;;;;;;1.13;0.35;;;15.00;99.90;;;;;;5075236;28;20514;-72
2023/05/01 06:08:48;;;;;;;0.05;0.05;;;15.00;99.90;;;;;;5074900;28;20521;-72
2023/05/01 06:11:14;;;;;;;0.00;0.00;;;15.00;99.90;;;;;;5074714;28;20417;-73
2023/05/01 06:13:39;;;;;;;1.45;1.38;;;15.20;99.90;;;;;;5069669;28;20388;-72
2023/05/01 06:16:06;;;;;;;0.00;0.00;;;14.80;99.90;;;;;;5057140;28;20025;-72
2023/05/01 06:18:32;;;;;;;0.00;0.00;;;14.90;99.90;;;;;;5054053;28;20135;-72
2023/05/01 06:20:59;;;;;;;1.00;1.00;;;14.90;99.90;;;;;;5057054;28;20032;-72
2023/05/01 06:23:25;;;;;;;0.52;0.40;;;15.10;99.90;;;;;;5059905;28;20055;-73
2023/05/01 06:26:16;;;;;;;0.00;0.00;;;15.40;99.90;;;;;;5039923;28;20436;-73
2023/05/01 06:28:42;;;;;;;0.00;0.00;;;15.60;99.90;;;;;;5056607;28;20082;-72
2023/05/01 06:31:09;;;;;;;0.08;0.08;;;15.70;99.90;;;;;;5090945;28;20077;-73
2023/05/01 06:33:40;;;;;;;0.32;0.32;;;15.70;99.90;;;;;;5059539;28;20021;-72
2023/05/01 06:36:26;;;;;;;0.20;0.20;;;15.00;99.90;;;;;;5048794;28;20049;-73
2023/05/01 06:38:52;;;;;;;0.20;0.20;;;14.30;99.90;;;;;;5062806;28;20082;-72
2023/05/01 06:41:18;;;;;;;0.10;0.10;;;14.40;99.90;;;;;;5063675;28;20095;-74
2023/05/01 06:43:44;;;;;;;0.40;0.40;;;14.20;99.90;;;;;;5037860;28;20029;-73
2023/05/01 06:46:11;;;;;;;0.10;0.10;;;14.30;99.90;;;;;;5037603;28;20037;-72
2023/05/01 06:48:37;;;;;;;1.45;0.98;;;14.80;99.90;;;;;;5080358;28;20028;-72
2023/05/01 06:51:03;;;;;;;1.95;0.73;;;14.70;99.90;;;;;;5057876;28;20377;-73
2023/05/01 06:53:28;;;;;;;0.00;0.00;;;14.60;99.90;;;;;;5058806;28;20370;-72
2023/05/01 06:55:55;;;;;;;1.17;1.08;;;14.70;99.90;;;;;;5053907;28;20044;-73
2023/05/01 06:58:21;;;;;;;0.08;0.08;;;14.80;99.90;;;;;;5047957;28;20048;-73
2023/05/01 07:00:47;;;;;;;2.17;1.27;;;15.10;99.90;;;;;;5062690;28;20021;-72
2023/05/01 07:03:12;;;;;;;0.98;0.93;;;15.30;99.90;;;;;;5064651;28;20021;-74
2023/05/01 07:05:41;;;;;;;0.10;0.10;;;14.90;99.90;;;;;;5053702;28;20024;-75
2023/05/01 07:08:08;;;;;;;5.28;1.85;;;14.80;99.90;;;;;;5054404;28;20033;-73
2023/05/01 07:10:34;;;;;;;1.10;1.10;;;15.20;99.90;;;;;;5054231;28;20036;-72
2023/05/01 07:13:00;;;;;;;0.70;0.70;;;15.40;99.90;;;;;;5055167;28;20013;-74
2023/05/01 07:15:25;;;;;;;0.20;0.20;;;15.10;99.90;;;;;;5031939;28;20471;-73
2023/05/01 07:17:51;;;;;;;0.30;0.30;;;15.10;99.90;;;;;;5054704;28;20024;-72
2023/05/01 07:20:17;;;;;;;0.10;0.10;;;15.50;99.90;;;;;;5052409;28;20025;-74
2023/05/01 07:22:43;;;;;;;0.10;0.10;;;15.70;99.90;;;;;;5053990;28;20029;-73
2023/05/01 07:25:09;;;;;;;0.52;0.50;;;15.60;99.90;;;;;;5054310;28;20500;-72
2023/05/01 07:27:35;;;;;;;2.92;1.73;;;15.40;99.90;;;;;;5053949;28;20028;-72
2023/05/01 07:30:03;;;;;;;0.10;0.10;;;14.80;99.90;;;;;;5034104;28;20444;-71
2023/05/01 07:32:29;;;;;;;0.13;0.13;;;14.80;99.90;;;;;;5043993;28;20041;-71
2023/05/01 07:34:55;;;;;;;1.10;0.90;;;14.90;99.90;;;;;;5035792;28;20128;-72
2023/05/01 07:37:21;;;;;;;0.50;0.50;;;14.90;99.90;;;;;;5044186;28;20112;-73
2023/05/01 07:39:47;;;;;;;0.85;0.85;;;14.70;99.90;;;;;;5038848;28;20033;-72
2023/05/01 07:42:12;;;;;;;0.28;0.28;;;14.60;99.90;;;;;;5040454;28;20378;-72
2023/05/01 07:44:38;;;;;;;0.38;0.38;;;14.70;99.90;;;;;;5037846;28;20025;-72
2023/05/01 07:47:05;;;;;;;0.10;0.10;;;15.20;99.90;;;;;;5045352;28;20027;-71
2023/05/01 07:49:37;;;;;;;1.10;0.70;;;15.70;99.90;;;;;;5034010;28;20022;-72
2023/05/01 07:52:06;;;;;;;2.50;0.85;;;15.90;99.90;;;;;;5051883;28;20047;-72
2023/05/01 07:54:32;;;;;;;1.20;0.70;;;15.80;99.90;;;;;;5052746;28;20104;-72
2023/05/01 07:56:57;;;;;;;0.60;0.60;;;15.90;99.90;;;;;;5052988;28;20068;-72
2023/05/01 07:59:23;;;;;;;0.10;0.10;;;15.90;99.90;;;;;;5052646;28;20049;-72
2023/05/01 08:01:49;;;;;;;0.03;0.03;;;16.20;99.90;;;;;;5052386;28;20143;-72
2023/05/01 08:04:16;;;;;;;1.88;1.70;;;16.40;99.90;;;;;;5052618;28;20448;-72
2023/05/01 08:06:42;;;;;;;0.10;0.10;;;16.00;99.90;;;;;;5052212;28;20025;-73
2023/05/01 08:09:08;;;;;;;9.95;1.48;;;15.70;99.90;;;;;;5034694;28;20023;-72
2023/05/01 08:11:34;;;;;;;0.47;0.47;;;15.70;99.90;;;;;;5049789;28;20029;-73
2023/05/01 08:14:00;;;;;;;0.70;0.55;;;15.80;99.90;;;;;;5051953;28;20362;-71
2023/05/01 08:16:26;;;;;;;0.05;0.05;;;15.70;99.90;;;;;;5052222;28;20044;-72
2023/05/01 08:18:52;;;;;;;1.88;0.88;;;15.70;99.90;;;;;;5052269;28;20025;-72
2023/05/01 08:21:17;;;;;;;6.65;4.03;;;15.60;99.90;;;;;;5051740;28;20077;-72
2023/05/01 08:23:43;;;;;;;0.35;0.35;;;15.50;99.90;;;;;;5052200;28;20021;-73
2023/05/01 08:26:09;;;;;;;1.65;1.35;;;15.50;99.90;;;;;;5051438;28;20040;-74
2023/05/01 08:28:35;;;;;;;0.25;0.25;;;15.70;99.90;;;;;;5051549;28;20060;-73
2023/05/01 08:31:02;;;;;;;0.63;0.55;;;15.60;99.90;;;;;;5051223;28;20485;-77
2023/05/01 08:33:28;;;;;;;2.25;1.45;;;15.80;99.90;;;;;;5033436;28;20073;-72
2023/05/01 08:35:54;;;;;;;2.55;1.85;;;15.70;99.90;;;;;;5048726;28;20075;-72
2023/05/01 08:38:19;;;;;;;13.07;2.88;;;15.60;99.90;;;;;;5050410;28;20370;-72
2023/05/01 08:40:52;;;;;;;0.82;0.82;;;15.40;99.90;;;;;;5051982;28;20037;-74
2023/05/01 08:43:18;;;;;;;0.63;0.63;;;15.30;99.90;;;;;;5051666;28;20049;-73
2023/05/01 08:45:46;;;;;;;2.75;2.40;;;15.20;99.90;;;;;;5051085;28;20040;-73
2023/05/01 08:48:15;;;;;;;2.28;2.13;;;15.20;99.90;;;;;;5050444;28;20013;-73
2023/05/01 08:50:45;;;;;;;1.83;1.45;;;15.00;99.90;;;;;;5032538;28;20393;-73
2023/05/01 08:53:14;;;;;;;0.00;0.00;;;15.00;99.90;;;;;;5050900;28;20037;-73
2023/05/01 08:55:46;;;;;;;0.80;0.77;;;14.90;99.90;;;;;;5050762;28;20047;-72
2023/05/01 08:58:13;;;;;;;6.10;3.58;;;15.00;99.90;;;;;;5047292;28;20097;-72
2023/05/01 09:00:41;;;;;;;9.70;3.15;;;14.80;99.90;;;;;;5050611;28;20048;-74
2023/05/01 09:03:10;;;;;;;7.45;4.13;;;14.60;99.90;;;;;;5025416;28;20032;-72
2023/05/01 09:05:36;;;;;;;12.65;4.43;;;14.40;99.90;;;;;;5035473;28;20032;-73
2023/05/01 09:08:02;;;;;;;1.92;1.55;;;14.30;99.90;;;;;;5039411;28;20022;-72
2023/05/01 09:10:29;;;;;;;3.03;2.00;;;14.30;99.90;;;;;;5040242;28;20132;-73
2023/05/01 09:12:59;;;;;;;3.78;3.35;;;14.20;99.90;;;;;;5043625;28;20025;-72
2023/05/01 09:15:26;;;;;;;2.17;1.63;;;14.10;99.90;;;;;;5039328;28;20043;-73
2023/05/01 09:17:53;;;;;;;4.85;1.27;;;14.10;99.90;;;;;;5043568;28;20091;-72
2023/05/01 09:20:19;;;;;;;1.13;0.98;;;14.00;99.90;;;;;;5037583;28;20037;-73
2023/05/01 09:22:46;;;;;;;6.03;4.47;;;14.10;99.90;;;;;;5038522;28;20115;-72
2023/05/01 09:25:12;;;;;;;8.88;3.25;;;14.00;99.90;;;;;;5041669;28;20074;-73
2023/05/01 09:27:38;;;;;;;9.23;4.85;;;14.20;99.90;;;;;;5057184;28;20401;-74
2023/05/01 09:30:06;;;;;;;4.18;2.58;;;14.10;99.90;;;;;;5053594;28;20405;-72
2023/05/01 09:32:32;;;;;;;7.10;5.00;;;14.40;99.90;;;;;;5054213;28;20044;-72
2023/05/01 09:35:14;;;;;;;0.90;0.90;;;14.20;99.90;;;;;;5057583;28;20466;-72
2023/05/01 09:37:40;;;;;;;2.20;2.00;;;14.30;99.90;;;;;;5033473;28;20045;-72
2023/05/01 09:40:11;;;;;;;0.30;0.30;;;14.40;99.90;;;;;;5057335;28;20111;-72
2023/05/01 09:42:52;;;;;;;3.35;1.27;;;14.50;99.90;;;;;;5055877;28;20037;-72
2023/05/01 09:45:18;;;;;;;4.50;3.08;;;14.70;99.90;;;;;;5071592;28;20044;-72
2023/05/01 09:47:45;;;;;;;0.10;0.10;;;14.80;99.90;;;;;;5055815;28;20037;-72
2023/05/01 09:50:34;;;;;;;5.72;3.17;;;14.80;99.90;;;;;;5056770;28;20362;-72
2023/05/01 09:53:01;;;;;;;0.20;0.20;;;15.10;99.90;;;;;;5047612;28;20053;-72
2023/05/01 09:55:27;;;;;;;3.83;2.15;;;15.00;99.90;;;;;;5038543;28;20041;-71
2023/05/01 09:57:53;;;;;;;1.10;1.10;;;15.20;99.90;;;;;;5032490;28;20132;-72
2023/05/01 10:00:20;;;;;;;0.40;0.40;;;15.10;99.90;;;;;;5037247;28;20060;-72
2023/05/01 10:02:48;;;;;;;0.15;0.15;;;15.50;99.90;;;;;;5034334;28;20026;-72
2023/05/01 10:05:14;;;;;;;2.55;2.40;;;15.40;99.90;;;;;;5039374;28;20565;-72
2023/05/01 10:07:58;;;;;;;0.32;0.32;;;15.60;99.90;;;;;;5013606;28;20034;-72
2023/05/01 10:10:24;;;;;;;3.15;2.95;;;15.70;99.90;;;;;;5013966;28;20405;-72
2023/05/01 10:12:50;;;;;;;0.10;0.10;;;15.70;99.90;;;;;;5033801;28;20036;-72
2023/05/01 10:15:16;;;;;;;0.35;0.35;;;16.30;99.90;;;;;;5034888;28;20025;-72
2023/05/01 10:17:43;;;;;;;6.40;1.40;;;16.80;99.90;;;;;;5035384;28;20499;-72
2023/05/01 10:20:13;;;;;;;4.47;2.30;;;17.10;99.90;;;;;;5048755;28;20035;-72
2023/05/01 10:22:40;;;;;;;2.13;1.38;;;17.80;99.90;;;;;;5035304;28;20037;-72
2023/05/01 10:25:11;;;;;;;5.50;2.92;;;17.00;99.90;;;;;;5050030;28;20544;-73
2023/05/01 10:27:39;;;;;;;3.97;0.60;;;16.90;99.90;;;;;;5033784;28;20025;-72
2023/05/01 10:30:06;;;;;;;2.17;1.08;;;16.90;99.90;;;;;;5034496;28;20060;-72
2023/05/01 10:32:33;;;;;;;0.40;0.40;;;17.10;99.90;;;;;;5035908;28;20032;-72
2023/05/01 10:35:03;;;;;;;6.70;3.47;;;17.80;99.90;;;;;;5035718;28;20029;-72
2023/05/01 10:37:50;;;;;;;1.25;1.20;;;17.50;99.90;;;;;;5031455;28;20088;-72
2023/05/01 10:40:38;;;;;;;0.55;0.38;;;17.20;99.90;;;;;;5034882;28;20049;-73
2023/05/01 10:43:24;;;;;;;2.95;1.20;;;17.70;99.90;;;;;;5042152;28;20035;-72
2023/05/01 10:45:51;;;;;;;2.33;2.15;;;17.90;99.90;;;;;;5036824;28;20040;-72
2023/05/01 10:48:42;;;;;;;2.88;1.73;;;17.80;99.90;;;;;;5021303;28;20112;-71
2023/05/01 10:51:13;;;;;;;0.00;0.00;;;18.00;99.90;;;;;;5037158;28;20683;-72
2023/05/01 10:53:42;;;;;;;3.60;2.85;;;18.10;99.90;;;;;;5040863;28;20037;-72
2023/05/01 10:56:20;;;;;;;5.38;1.10;;;18.00;99.90;;;;;;5032359;28;21248;-72
2023/05/01 10:58:52;;;;;;;0.35;0.35;;;17.70;99.90;;;;;;5040091;28;20040;-72
2023/05/01 11:01:34;;;;;;;1.27;0.93;;;18.10;99.90;;;;;;5021929;28;20390;-73
2023/05/01 11:04:04;;;;;;;;;;;18.60;99.90;;;;;;5049780;28;20112;-72
2023/05/01 11:06:30;;;;;;;2.55;0.90;;;18.90;99.90;;;;;;5037822;28;19909;-72
2023/05/01 11:08:56;;;;;;;2.75;1.45;;;19.40;99.90;;;;;;5052249;28;20028;-73
2023/05/01 11:11:25;;;;;;;2.38;1.48;;;19.90;99.90;;;;;;5054442;28;20029;-72
2023/05/01 11:14:02;;;;;;;0.32;0.32;;;20.00;99.90;;;;;;5054403;28;20469;-72
2023/05/01 11:16:37;;;;;;;2.50;1.98;;;21.00;99.90;;;;;;5053921;28;20051;-72
2023/05/01 11:19:04;;;;;;;1.10;0.52;;;21.30;99.90;;;;;;5053816;28;20025;-72
2023/05/01 11:21:34;;;;;;;0.60;0.60;;;21.20;99.90;;;;;;5036709;28;20078;-72
2023/05/01 11:24:00;;;;;;;4.63;2.08;;;21.90;99.90;;;;;;5054448;28;20041;-72
2023/05/01 11:26:27;;;;;;;4.20;1.02;;;21.90;99.30;;;;;;5036574;28;20435;-72
2023/05/01 11:28:56;;;;;;;1.33;1.10;;;21.20;99.90;;;;;;5056791;28;20179;-72
2023/05/01 11:31:23;;;;;;;1.45;1.35;;;21.00;99.90;;;;;;5054502;28;20090;-72
2023/05/01 11:33:49;;;;;;;2.60;1.25;;;20.90;99.70;;;;;;5055619;28;20100;-72
2023/05/01 11:36:15;;;;;;;3.90;2.10;;;20.80;99.90;;;;;;5054132;28;20041;-72
2023/05/01 11:38:52;;;;;;;0.55;0.45;;;20.70;99.90;;;;;;5033878;28;20029;-72
2023/05/01 11:41:22;;;;;;;2.45;0.82;;;21.40;99.90;;;;;;5037340;28;20064;-72
2023/05/01 11:43:58;;;;;;;3.15;2.50;;;21.40;99.80;;;;;;5038467;28;20497;-72
2023/05/01 11:46:28;;;;;;;0.55;0.55;;;21.40;99.20;;;;;;5030507;28;20084;-72
2023/05/01 11:48:55;;;;;;;0.00;0.00;;;21.50;98.70;;;;;;5019656;28;20152;-75
2023/05/01 11:51:22;;;;;;;4.10;1.15;;;21.90;98.60;;;;;;5033606;28;20017;-72
2023/05/01 11:54:01;;;;;;;0.30;0.30;;;22.10;97.80;;;;;;5045243;28;20037;-72
2023/05/01 11:56:28;;;;;;;2.25;0.65;;;22.20;97.90;;;;;;5037477;28;20126;-72
2023/05/01 11:58:58;;;;;;;0.65;0.47;;;22.50;96.80;;;;;;5033054;28;20104;-72
2023/05/01 12:01:40;;;;;;;1.30;1.20;;;22.80;96.70;;;;;;5041873;28;20555;-73
2023/05/01 12:04:07;;;;;;;1.42;0.95;;;22.90;96.40;;;;;;5040164;28;20021;-72
2023/05/01 12:06:39;;;;;;;6.25;1.70;;;23.00;96.30;;;;;;5040171;28;20470;-72
2023/05/01 12:09:07;;;;;;;1.33;1.02;;;22.10;96.00;;;;;;5031594;28;20441;-72
2023/05/01 12:11:34;;;;;;;1.88;1.10;;;20.50;97.60;;;;;;5041074;28;20022;-73
2023/05/01 12:14:00;;;;;;;3.03;1.98;;;20.00;98.50;;;;;;5038087;28;20037;-72
2023/05/01 12:16:27;;;;;;;0.17;0.15;;;19.90;98.40;;;;;;5019455;28;20030;-71
2023/05/01 12:18:54;;;;;;;1.30;0.93;;;20.00;98.50;;;;;;5016687;28;20040;-72
2023/05/01 12:21:20;;;;;;;3.35;3.05;;;20.20;97.90;;;;;;5049291;28;20021;-72
2023/05/01 12:23:46;;;;;;;2.72;1.52;;;19.80;98.30;;;;;;5041861;28;20021;-72
2023/05/01 12:26:16;;;;;;;6.15;0.55;;;19.60;98.60;;;;;;5038125;28;20053;-72
2023/05/01 12:29:00;;;;;;;4.75;2.22;;;19.40;99.20;;;;;;5034821;28;20026;-72
2023/05/01 12:31:27;;;;;;;0.63;0.63;;;19.10;99.60;;;;;;5033645;28;20124;-71
2023/05/01 12:33:57;;;;;;;0.10;0.10;;;19.10;99.90;;;;;;5041792;28;20018;-72
2023/05/01 12:36:27;;;;;;;0.77;0.77;;;19.30;99.90;;;;;;5039769;28;20421;-71
2023/05/01 12:39:04;;;;;;;0.68;0.68;;;19.20;99.70;;;;;;5044501;28;20124;-72
2023/05/01 12:41:45;;;;;;;0.93;0.73;;;19.30;99.90;;;;;;5051194;28;20420;-72
2023/05/01 12:44:19;;;;;;;0.00;0.00;;;19.20;99.90;;;;;;5052224;28;20036;-71
2023/05/01 12:47:02;;;;;;;0.82;0.82;;;19.30;99.90;;;;;;5048152;28;20025;-72
2023/05/01 12:49:29;;;;;;;1.55;1.38;;;19.10;99.90;;;;;;5033511;28;20032;-72
2023/05/01 12:51:56;;;;;;;0.20;0.20;;;19.20;99.90;;;;;;5048414;28;20032;-72
2023/05/01 12:54:26;;;;;;;4.13;2.15;;;19.10;99.90;;;;;;5048664;28;20040;-71
2023/05/01 12:56:52;;;;;;;0.03;0.03;;;19.00;99.90;;;;;;5051133;28;20051;-72